LRSV

Details ICAO LRSV (SCV)
Name STEFAN CEL MARE
Region Romania
Timezone Europe/Bucharest (UTC+3.0)
Plans Departing 8
Arriving 22
Stats Elevation 1,375 ft / 419 m (AMSL)
Location 47.687500° 26.354054°
Runways 1
Magnetic Variation 6.235° E
Sunrise 2018-05-22 02:30:39 UTC / 2018-05-22 05:30:39 Local
Sunset 2018-05-22 17:54:41 UTC / 2018-05-22 20:54:41 Local
Advertisement - Login to hide

Runways

ID Width Length Bearing (true) Bearing (mag) Surface Threshold Offset Overrun Length
16 98 ft / 30 m 5,888 ft / 1,795 m 163.05° 156.82° Concrete 0 ft / 0 m 0 ft / 0 m
34 98 ft / 30 m 5,888 ft / 1,795 m 343.06° 336.83° Concrete 0 ft / 0 m 0 ft / 0 m

Map

Weather


0- 5 10 15 20 25 30 35+ Temperature / ° C

Clouds and Precipitation
Forecast for 2018-05-22 00:00 UTC. Updated an hour ago

Ground ~20,000 ft ~40,000 ft Winds

METAR

LRSV 220000Z 17005KT CAVOK 14/07 Q1020

TAF

Not found

Frequencies

Tower 118.30 MHz TWR
Approach 120.90 MHz PRECISION
Warning: Do not use this data for real-world aviation or navigation. No guarantee of current accuracy is given.